Terminal Aerodrome Forecast
Issued by NWS Corpus Christi, TX

Home | Current Version | Previous Version | Text Only | Print | Product List | Glossary On
Versions: 1 2 3 4 5 6 7 8 9 10 11 12 13 14 15
000
FTUS44 KCRP 220500
TAFVCT
TAF
KVCT 220529Z 2206/2306 18005KT P6SM SCT012
      TEMPO 2210/2213 BKN012
     FM221400 19007KT P6SM SCT025 BKN200
     FM222100 16012G18KT P6SM SCT040
     FM230400 18006KT P6SM FEW015=

USA.gov is the U.S. government's official web portal to all federal, state and local government web resources and services.